Time;durP1;ratioP1;P1;durP2;ratioP2;P2;SDS_P1;SDS_P2;PMS_P1;PMS_P2;Temp;Humidity;BMP_temperature;BMP_pressure;BME280_temperature;BME280_humidity;BME280_pressure;Samples;Min_cycle;Max_cycle;Signal;HPM_P1;HPM_P2
2022/10/26 00:00:08;;;;;;;6.63;6.03;;;;;;;8.19;100.00;100196.56;10524632;28;20067;-71
2022/10/26 00:05:14;;;;;;;7.03;5.13;;;;;;;8.03;100.00;100203.81;10542299;28;20082;-71
2022/10/26 00:10:16;;;;;;;8.68;5.55;;;;;;;8.22;100.00;100212.19;10522694;28;20047;-71
2022/10/26 00:15:18;;;;;;;6.68;5.72;;;;;;;8.34;100.00;100211.97;10542213;28;20556;-71
2022/10/26 00:20:20;;;;;;;5.82;5.25;;;;;;;8.27;100.00;100215.56;10541811;28;20044;-71
2022/10/26 00:25:22;;;;;;;5.97;5.18;;;;;;;8.13;100.00;100222.84;10542224;28;20040;-71
2022/10/26 00:30:24;;;;;;;5.68;5.13;;;;;;;7.73;100.00;100220.06;10541794;28;20104;-71
2022/10/26 00:35:25;;;;;;;6.25;5.75;;;;;;;7.86;100.00;100225.97;10542112;28;20067;-71
2022/10/26 00:40:46;;;;;;;6.40;5.75;;;;;;;7.86;100.00;100228.59;10540758;28;20048;-71
2022/10/26 00:45:52;;;;;;;13.05;6.05;;;;;;;7.99;100.00;100220.47;10541199;28;20040;-71
2022/10/26 00:50:57;;;;;;;5.50;5.00;;;;;;;7.87;100.00;100222.44;10540667;28;20037;-71
2022/10/26 00:56:00;;;;;;;5.18;4.78;;;;;;;7.67;100.00;100215.81;10539841;28;20048;-71
2022/10/26 01:01:01;;;;;;;6.97;6.28;;;;;;;7.90;100.00;100218.03;10522924;28;20571;-71
2022/10/26 01:06:05;;;;;;;8.35;4.85;;;;;;;7.81;100.00;100223.44;10540662;28;20469;-71
2022/10/26 01:11:07;;;;;;;5.88;4.78;;;;;;;7.64;100.00;100223.72;10540052;28;20050;-71
2022/10/26 01:16:24;;;;;;;5.47;5.00;;;;;;;7.55;100.00;100224.72;10540767;28;20550;-71
2022/10/26 01:21:25;;;;;;;;;;;;;;;7.44;100.00;100215.34;10542320;28;20032;-71
2022/10/26 01:26:42;;;;;;;5.85;4.72;;;;;;;7.68;100.00;100204.47;10529799;28;20373;-71
2022/10/26 01:31:55;;;;;;;6.93;4.78;;;;;;;7.63;100.00;100205.44;10547667;28;20044;-71
2022/10/26 01:37:06;;;;;;;5.45;4.05;;;;;;;7.50;100.00;100212.63;10548315;28;20481;-71
2022/10/26 01:42:11;;;;;;;4.45;4.05;;;;;;;7.20;100.00;100211.34;10547839;28;20070;-71
2022/10/26 01:47:15;;;;;;;8.43;5.18;;;;;;;7.37;100.00;100211.94;10546910;28;20516;-71
2022/10/26 01:52:18;;;;;;;5.93;4.18;;;;;;;7.56;100.00;100215.13;10443256;28;20386;-71
2022/10/26 01:57:20;;;;;;;8.43;4.85;;;;;;;7.48;100.00;100211.75;10546692;28;20047;-72
2022/10/26 02:02:38;;;;;;;12.55;4.80;;;;;;;7.50;100.00;100215.22;10528959;28;20552;-72
2022/10/26 02:08:04;;;;;;;6.25;4.43;;;;;;;7.31;100.00;100206.84;10547222;28;20031;-72
2022/10/26 02:13:09;;;;;;;5.35;4.88;;;;;;;7.15;100.00;100203.56;10546450;28;20079;-72
2022/10/26 02:18:22;;;;;;;6.38;4.28;;;;;;;7.01;100.00;100208.16;10547721;28;20457;-71
2022/10/26 02:23:26;;;;;;;5.50;4.32;;;;;;;6.82;100.00;100191.88;10546828;28;20051;-72
2022/10/26 02:28:34;;;;;;;7.75;5.00;;;;;;;7.00;100.00;100190.75;10531604;28;20139;-71
2022/10/26 02:33:39;;;;;;;5.10;4.25;;;;;;;7.19;100.00;100193.94;10545162;28;20036;-71
2022/10/26 02:38:42;;;;;;;4.68;4.25;;;;;;;6.99;100.00;100191.59;10527336;28;20074;-71
2022/10/26 02:43:55;;;;;;;4.88;3.88;;;;;;;7.10;100.00;100194.09;10544911;28;20044;-72
2022/10/26 02:48:57;;;;;;;4.88;3.53;;;;;;;7.03;100.00;100190.69;10544756;28;20044;-73
2022/10/26 02:54:15;;;;;;;8.90;3.78;;;;;;;7.03;100.00;100186.31;10545551;28;20067;-71
2022/10/26 02:59:20;;;;;;;4.47;3.80;;;;;;;7.14;100.00;100191.41;10543685;28;20121;-71
2022/10/26 03:04:30;;;;;;;6.30;4.10;;;;;;;6.82;100.00;100182.28;10544502;28;20047;-71
2022/10/26 03:09:33;;;;;;;4.28;3.58;;;;;;;6.80;100.00;100191.88;10525944;28;20055;-71
2022/10/26 03:14:34;;;;;;;4.80;3.97;;;;;;;6.90;100.00;100190.00;10544199;28;20042;-71
2022/10/26 03:19:36;;;;;;;5.30;3.75;;;;;;;6.97;100.00;100186.41;10544018;28;20086;-71
2022/10/26 03:24:37;;;;;;;4.18;3.35;;;;;;;6.75;100.00;100182.38;10543618;28;20382;-72
2022/10/26 03:29:39;;;;;;;9.50;4.28;;;;;;;6.61;100.00;100187.78;10526216;28;20489;-71
2022/10/26 03:34:41;;;;;;;3.55;3.25;;;;;;;6.81;100.00;100187.50;10543442;28;20071;-71
2022/10/26 03:39:42;;;;;;;5.55;4.13;;;;;;;6.95;100.00;100182.97;10544032;28;20102;-71
2022/10/26 03:44:46;;;;;;;3.80;3.50;;;;;;;6.73;100.00;100190.25;10524328;28;20092;-71
2022/10/26 03:49:47;;;;;;;4.15;3.30;;;;;;;6.91;100.00;100183.91;10542495;28;20070;-72
2022/10/26 03:54:49;;;;;;;4.82;3.60;;;;;;;7.04;100.00;100192.44;10524995;28;20075;-72
2022/10/26 03:59:51;;;;;;;5.88;3.60;;;;;;;6.98;100.00;100195.13;10542241;28;20097;-71
2022/10/26 04:04:52;;;;;;;3.85;3.35;;;;;;;7.04;100.00;100187.19;10542037;28;20557;-71
2022/10/26 04:09:54;;;;;;;5.15;3.35;;;;;;;7.05;100.00;100188.94;10541872;28;20066;-71
2022/10/26 04:14:59;;;;;;;4.68;3.55;;;;;;;6.95;100.00;100195.16;10541787;28;20047;-71
2022/10/26 04:20:01;;;;;;;3.75;3.33;;;;;;;6.63;100.00;100187.75;10541849;28;20051;-71
2022/10/26 04:25:03;;;;;;;4.88;3.55;;;;;;;6.72;100.00;100191.09;10541695;28;20479;-71
2022/10/26 04:30:08;;;;;;;5.03;3.60;;;;;;;6.46;100.00;100185.38;10523536;28;20555;-71
2022/10/26 04:35:10;;;;;;;7.65;4.30;;;;;;;6.71;100.00;100183.31;10541501;28;20490;-71
2022/10/26 04:40:16;;;;;;;5.28;4.20;;;;;;;6.68;100.00;100183.34;10438883;28;20051;-71
2022/10/26 04:45:17;;;;;;;3.83;3.35;;;;;;;6.42;100.00;100174.13;10541379;28;20047;-71
2022/10/26 04:50:19;;;;;;;6.18;4.35;;;;;;;6.80;100.00;100184.03;10541440;22;20044;-72
2022/10/26 04:55:26;;;;;;;6.35;4.43;;;;;;;6.47;100.00;100177.53;10455023;28;20512;-73
2022/10/26 05:00:29;;;;;;;9.00;4.20;;;;;;;6.28;100.00;100174.25;10467113;28;20099;-73
2022/10/26 05:05:34;;;;;;;8.32;4.10;;;;;;;6.36;100.00;100173.31;10465523;28;20037;-73
2022/10/26 05:10:35;;;;;;;4.45;3.70;;;;;;;6.53;100.00;100172.22;10465477;28;20120;-74
2022/10/26 05:15:38;;;;;;;5.47;3.78;;;;;;;6.69;100.00;100169.41;10466028;28;20045;-74
2022/10/26 05:20:40;;;;;;;5.65;4.35;;;;;;;6.38;100.00;100166.34;10466473;28;20045;-74
2022/10/26 05:25:41;;;;;;;4.20;3.80;;;;;;;6.35;100.00;100174.22;10465448;28;20063;-75
2022/10/26 05:30:44;;;;;;;4.82;4.35;;;;;;;6.56;100.00;100166.97;10465459;28;20067;-74
2022/10/26 05:35:46;;;;;;;8.18;4.78;;;;;;;6.55;100.00;100170.47;10465160;28;20453;-74
2022/10/26 05:40:49;;;;;;;4.88;4.38;;;;;;;6.50;100.00;100176.59;10466180;28;20051;-74
2022/10/26 05:45:51;;;;;;;4.13;3.72;;;;;;;6.50;100.00;100171.38;10462220;28;20556;-73
2022/10/26 05:50:52;;;;;;;7.53;4.38;;;;;;;6.48;100.00;100176.63;10467397;28;20071;-73
2022/10/26 05:55:55;;;;;;;8.88;4.03;;;;;;;6.51;100.00;100184.44;10504032;28;20051;-73
2022/10/26 06:01:10;;;;;;;4.78;3.38;;;;;;;6.20;100.00;100185.69;10505304;28;20040;-74
2022/10/26 06:06:12;;;;;;;7.05;4.63;;;;;;;6.43;100.00;100188.91;10504464;28;20043;-73
2022/10/26 06:11:14;;;;;;;4.40;3.55;;;;;;;6.63;100.00;100206.03;10503848;28;20075;-73
2022/10/26 06:16:43;;;;;;;6.68;4.32;;;;;;;6.53;100.00;100203.56;10485494;28;20090;-73
2022/10/26 06:22:09;;;;;;;5.70;3.92;;;;;;;6.46;100.00;100211.47;10504178;28;20044;-74
2022/10/26 06:27:45;;;;;;;5.50;3.90;;;;;;;6.49;100.00;100220.13;10504481;28;20075;-72
2022/10/26 06:32:46;;;;;;;7.43;3.80;;;;;;;6.93;100.00;100218.69;10502986;28;20044;-72
2022/10/26 06:37:49;;;;;;;9.25;3.97;;;;;;;7.03;100.00;100229.88;10502964;28;20044;-72
2022/10/26 06:42:51;;;;;;;7.78;3.50;;;;;;;6.90;100.00;100223.09;10502931;28;20128;-72
2022/10/26 06:48:06;;;;;;;5.03;3.40;;;;;;;7.10;100.00;100226.31;10504548;28;20055;-72
2022/10/26 06:53:29;;;;;;;9.20;3.63;;;;;;;7.52;100.00;100229.13;10484401;28;20568;-73
2022/10/26 06:58:36;;;;;;;8.15;2.63;;;;;;;7.79;100.00;100231.31;10501771;28;20040;-73
2022/10/26 07:03:37;;;;;;;4.40;2.43;;;;;;;8.12;100.00;100234.22;10502665;28;20508;-72
2022/10/26 07:08:39;;;;;;;3.78;2.83;;;;;;;8.28;100.00;100235.66;10484652;28;20293;-72
2022/10/26 07:13:41;;;;;;;7.72;2.95;;;;;;;8.30;100.00;100239.09;10501476;28;20086;-73
2022/10/26 07:18:42;;;;;;;6.53;2.83;;;;;;;8.44;100.00;100238.84;10500936;28;20522;-73
2022/10/26 07:23:44;;;;;;;4.97;2.38;;;;;;;8.50;100.00;100232.63;10500782;28;20045;-72
2022/10/26 07:28:48;;;;;;;4.20;2.47;;;;;;;8.76;100.00;100238.19;10502509;28;20537;-73
2022/10/26 07:33:52;;;;;;;7.20;2.20;;;;;;;8.80;100.00;100242.47;10501284;28;20127;-73
2022/10/26 07:38:54;;;;;;;7.47;2.60;;;;;;;8.73;100.00;100240.03;10500258;28;20080;-73
2022/10/26 07:43:56;;;;;;;12.52;2.92;;;;;;;9.02;100.00;100235.00;10499714;28;20041;-72
2022/10/26 07:48:57;;;;;;;5.53;3.00;;;;;;;9.12;100.00;100238.31;10500276;28;20044;-73
2022/10/26 07:53:59;;;;;;;8.20;3.13;;;;;;;9.21;100.00;100235.47;10500459;28;20063;-73
2022/10/26 07:59:00;;;;;;;4.80;2.80;;;;;;;9.54;100.00;100246.94;10499356;28;20048;-73
2022/10/26 08:04:02;;;;;;;3.53;2.50;;;;;;;9.48;100.00;100239.22;10498942;28;20119;-72
2022/10/26 08:09:04;;;;;;;3.65;2.28;;;;;;;9.59;100.00;100247.69;10498991;28;20048;-73
2022/10/26 08:14:05;;;;;;;4.72;3.67;;;;;;;9.67;100.00;100239.63;10499941;28;20040;-73
2022/10/26 08:19:07;;;;;;;5.20;4.20;;;;;;;9.86;100.00;100234.75;10498756;28;20094;-73
2022/10/26 08:24:09;;;;;;;4.40;4.00;;;;;;;9.93;100.00;100241.59;10498539;28;20123;-72
2022/10/26 08:29:10;;;;;;;7.45;5.68;;;;;;;10.00;100.00;100237.88;10498593;28;20505;-73
2022/10/26 08:34:12;;;;;;;5.97;5.57;;;;;;;10.27;99.34;100236.34;10481215;28;20048;-74
2022/10/26 08:39:13;;;;;;;9.57;7.53;;;;;;;10.43;100.00;100236.78;10498039;28;20044;-72
2022/10/26 08:44:44;;;;;;;15.65;8.70;;;;;;;10.51;100.00;100231.31;10498357;28;20094;-72
2022/10/26 08:50:01;;;;;;;9.65;8.85;;;;;;;10.33;100.00;100228.28;10329690;28;20066;-73
2022/10/26 08:55:03;;;;;;;9.82;8.20;;;;;;;10.78;100.00;100235.75;10331478;28;20101;-72
2022/10/26 09:00:10;;;;;;;9.00;8.07;;;;;;;11.06;98.76;100230.53;10330165;28;20058;-73
2022/10/26 09:05:17;;;;;;;9.07;7.43;;;;;;;11.20;99.12;100234.50;10329476;28;20097;-73
2022/10/26 09:10:34;;;;;;;7.68;7.05;;;;;;;11.44;98.48;100244.28;10329476;28;20137;-73
2022/10/26 09:15:53;;;;;;;10.30;7.93;;;;;;;11.69;97.58;100238.22;10329374;28;20077;-72
2022/10/26 09:21:20;;;;;;;8.02;7.30;;;;;;;11.92;95.64;100233.06;10331720;28;20594;-72
2022/10/26 09:26:52;;;;;;;8.23;7.45;;;;;;;12.08;95.92;100228.97;10464242;28;20477;-72
2022/10/26 09:31:58;;;;;;;8.25;7.45;;;;;;;12.29;94.08;100224.72;10498394;28;20482;-72
2022/10/26 09:37:00;;;;;;;8.27;7.55;;;;;;;12.28;95.73;100222.16;10497824;28;20045;-73
2022/10/26 09:42:23;;;;;;;8.65;7.80;;;;;;;12.22;97.34;100223.25;10499283;28;20075;-72
2022/10/26 09:47:32;;;;;;;9.40;8.65;;;;;;;12.21;98.80;100229.41;10504608;28;20072;-73
2022/10/26 09:52:34;;;;;;;9.38;8.50;;;;;;;12.35;100.00;100224.53;10504682;28;20075;-72
2022/10/26 09:57:36;;;;;;;9.05;8.20;;;;;;;12.79;96.43;100224.66;10504393;28;20123;-72
2022/10/26 10:02:43;;;;;;;8.55;7.85;;;;;;;13.11;94.14;100225.19;10488028;28;20044;-72
2022/10/26 10:07:44;;;;;;;8.70;7.18;;;;;;;13.40;93.56;100224.06;10503817;28;20051;-73
2022/10/26 10:12:49;;;;;;;7.78;7.18;;;;;;;14.09;89.86;100227.34;10504953;28;20044;-72
2022/10/26 10:17:54;;;;;;;7.43;6.57;;;;;;;14.98;83.52;100226.00;10504141;28;20040;-72
2022/10/26 10:23:02;;;;;;;8.07;6.35;;;;;;;15.25;83.03;100218.53;10487567;28;20474;-72
2022/10/26 10:28:21;;;;;;;8.10;5.88;;;;;;;15.79;80.42;100215.94;10503571;28;20041;-72
2022/10/26 10:33:31;;;;;;;6.47;5.88;;;;;;;16.35;77.14;100220.97;10503850;28;20048;-73
2022/10/26 10:38:41;;;;;;;5.50;5.00;;;;;;;16.79;75.00;100211.59;10502870;28;20041;-72
2022/10/26 10:43:54;;;;;;;6.65;5.07;;;;;;;17.15;74.73;100217.53;10503983;28;20068;-72
2022/10/26 10:49:17;;;;;;;5.25;4.75;;;;;;;17.81;69.77;100210.28;10501948;28;20512;-71
2022/10/26 10:54:38;;;;;;;5.82;5.32;;;;;;;17.85;68.25;100211.81;10479595;22;20080;-70
2022/10/26 11:00:12;;;;;;;5.55;5.03;;;;;;;18.07;69.98;100208.72;10504185;28;20044;-71
2022/10/26 11:05:46;;;;;;;5.22;4.38;;;;;;;18.41;66.16;100196.84;10377031;28;20054;-71
2022/10/26 11:11:17;;;;;;;5.28;4.10;;;;;;;18.22;66.89;100194.47;10378014;28;20097;-70
2022/10/26 11:16:27;;;;;;;4.65;3.90;;;;;;;19.24;62.24;100203.16;10376156;28;20057;-71
2022/10/26 11:21:32;;;;;;;4.15;3.45;;;;;;;19.34;62.83;100196.28;10376170;28;20515;-70
2022/10/26 11:26:44;;;;;;;4.88;3.85;;;;;;;19.18;62.84;100200.91;10374390;28;20116;-71
2022/10/26 11:31:57;;;;;;;3.30;2.70;;;;;;;19.74;60.92;100199.00;10378029;28;20054;-71
2022/10/26 11:37:10;;;;;;;5.85;3.28;;;;;;;20.18;58.88;100203.13;10374940;28;20042;-70
2022/10/26 11:42:20;;;;;;;4.72;2.65;;;;;;;20.45;56.35;100197.66;10503163;28;20078;-70
2022/10/26 11:48:00;;;;;;;4.45;2.95;;;;;;;19.94;58.98;100202.16;10502787;28;20090;-70
2022/10/26 11:53:15;;;;;;;3.33;2.15;;;;;;;20.01;58.38;100206.09;10498715;28;20076;-70
2022/10/26 11:58:18;;;;;;;3.65;2.25;;;;;;;19.76;58.52;100212.25;10501419;28;20098;-70
2022/10/26 12:03:26;;;;;;;2.97;2.20;;;;;;;19.17;61.53;100204.53;10501878;28;20401;-70
2022/10/26 12:08:45;;;;;;;4.85;1.88;;;;;;;19.14;60.71;100210.06;10502370;28;20045;-70
2022/10/26 12:13:59;;;;;;;1.27;0.98;;;;;;;18.75;62.17;100202.78;10458344;28;20045;-71
2022/10/26 12:19:13;;;;;;;1.50;0.68;;;;;;;18.81;58.71;100213.03;10482992;28;20102;-71
2022/10/26 12:24:21;;;;;;;5.40;0.60;;;;;;;18.57;60.09;100212.75;10483478;28;20040;-71
2022/10/26 12:29:35;;;;;;;1.58;0.70;;;;;;;18.10;62.64;100208.50;10500182;28;20502;-70
2022/10/26 12:34:37;;;;;;;1.38;0.57;;;;;;;18.03;64.70;100217.84;10500809;28;20448;-70
2022/10/26 12:39:41;;;;;;;1.15;0.60;;;;;;;17.90;63.63;100209.72;10499675;28;20044;-70
2022/10/26 12:44:44;;;;;;;1.08;0.30;;;;;;;18.28;59.83;100202.09;10500593;28;20048;-71
2022/10/26 12:49:58;;;;;;;1.17;0.40;;;;;;;17.84;61.53;100210.06;10483380;28;20052;-70
2022/10/26 12:55:07;;;;;;;0.80;0.30;;;;;;;17.72;63.06;100203.66;10499598;28;20036;-71
2022/10/26 13:00:15;;;;;;;1.25;0.40;;;;;;;17.81;63.24;100207.59;10499674;28;20489;-71
2022/10/26 13:05:38;;;;;;;0.85;0.40;;;;;;;17.65;64.14;100221.75;10484285;28;20052;-70
2022/10/26 13:11:01;;;;;;;1.73;0.47;;;;;;;17.48;65.64;100221.00;10500492;28;20087;-70
2022/10/26 13:16:04;;;;;;;1.58;0.68;;;;;;;17.53;64.81;100219.81;10466478;28;20102;-71
2022/10/26 13:21:10;;;;;;;0.85;0.40;;;;;;;17.46;64.95;100223.75;10490720;28;20051;-70
2022/10/26 13:26:17;;;;;;;1.33;0.70;;;;;;;17.82;61.54;100218.16;10489829;28;20508;-70
2022/10/26 13:31:31;;;;;;;0.70;0.45;;;;;;;17.82;61.90;100222.59;10489017;28;20040;-70
2022/10/26 13:36:35;;;;;;;3.38;0.50;;;;;;;17.83;61.51;100219.84;10473963;28;20045;-70
2022/10/26 13:41:41;;;;;;;2.60;0.40;;;;;;;17.76;62.68;100223.84;10464940;28;20044;-70
2022/10/26 13:46:45;;;;;;;1.65;0.68;;;;;;;17.69;63.49;100232.22;10465049;28;20086;-70
2022/10/26 13:51:50;;;;;;;0.95;0.63;;;;;;;17.53;62.46;100221.59;10295316;28;20085;-70
2022/10/26 13:57:12;;;;;;;2.13;0.60;;;;;;;17.49;63.71;100230.72;10296129;28;20035;-70
2022/10/26 14:02:21;;;;;;;0.80;0.65;;;;;;;17.24;64.25;100233.91;10394206;28;20055;-70
2022/10/26 14:07:28;;;;;;;0.95;0.50;;;;;;;17.13;64.31;100227.41;10296134;28;20074;-70
2022/10/26 14:12:30;;;;;;;1.63;0.43;;;;;;;17.05;65.32;100219.00;10295134;28;20070;-72
2022/10/26 14:17:32;;;;;;;0.98;0.40;;;;;;;17.10;65.95;100216.94;10295126;28;20050;-70
2022/10/26 14:22:35;;;;;;;1.75;0.60;;;;;;;17.03;67.58;100222.66;10355182;28;20054;-71
2022/10/26 14:27:42;;;;;;;1.10;1.00;;;;;;;16.85;67.82;100224.53;10294782;28;20102;-70
2022/10/26 14:32:43;;;;;;;3.70;1.00;;;;;;;16.79;68.46;100225.72;10487442;28;20052;-70
2022/10/26 14:37:51;;;;;;;1.55;0.90;;;;;;;16.72;69.25;100234.06;10403639;28;20049;-70
2022/10/26 14:42:56;;;;;;;2.67;0.90;;;;;;;16.70;69.90;100235.97;10506522;28;20045;-72
2022/10/26 14:48:00;;;;;;;3.40;0.90;;;;;;;16.90;68.20;100243.72;10505082;28;20040;-72
2022/10/26 14:53:14;;;;;;;2.47;1.13;;;;;;;16.95;71.08;100252.28;10520640;28;20041;-72
2022/10/26 14:58:36;;;;;;;1.60;0.90;;;;;;;16.85;72.45;100259.03;10505033;28;20098;-71
2022/10/26 15:03:37;;;;;;;10.38;2.70;;;;;;;17.17;71.66;100251.97;10487219;28;20044;-72
2022/10/26 15:08:41;;;;;;;3.90;1.90;;;;;;;17.02;72.79;100253.69;10471750;28;20045;-70
2022/10/26 15:13:57;;;;;;;5.95;2.05;;;;;;;16.86;73.93;100264.25;10506312;28;20090;-71
2022/10/26 15:19:09;;;;;;;10.93;3.20;;;;;;;16.49;75.87;100262.69;10507478;28;20047;-72
2022/10/26 15:24:31;;;;;;;13.63;3.30;;;;;;;16.41;77.19;100267.53;10488169;28;20048;-72
2022/10/26 15:29:42;;;;;;;8.43;3.58;;;;;;;16.25;77.27;100266.63;10489298;28;20040;-70
2022/10/26 15:35:12;;;;;;;4.32;2.70;;;;;;;16.11;77.86;100275.28;10506562;28;20501;-73
2022/10/26 15:40:14;;;;;;;5.88;3.13;;;;;;;16.02;77.81;100270.44;10504599;28;20053;-73
2022/10/26 15:45:20;;;;;;;7.65;3.50;;;;;;;15.86;78.34;100279.16;10520641;28;20032;-72
2022/10/26 15:50:25;;;;;;;6.45;3.45;;;;;;;15.46;81.00;100277.59;10487660;28;20051;-72
2022/10/26 15:55:29;;;;;;;5.30;3.50;;;;;;;15.32;82.05;100283.53;10505333;28;20482;-73
2022/10/26 16:00:31;;;;;;;4.65;4.05;;;;;;;15.16;83.18;100298.41;10505292;28;20051;-71
2022/10/26 16:05:35;;;;;;;5.85;4.20;;;;;;;15.25;81.22;100303.28;10503469;28;20123;-73
2022/10/26 16:10:37;;;;;;;5.25;3.88;;;;;;;15.27;81.85;100303.19;10504905;28;20040;-72
2022/10/26 16:15:39;;;;;;;10.57;5.28;;;;;;;14.86;84.35;100303.31;10505138;28;20091;-72
2022/10/26 16:20:44;;;;;;;7.82;5.15;;;;;;;14.86;84.23;100303.31;10503882;28;20413;-72
2022/10/26 16:25:46;;;;;;;18.45;16.40;;;;;;;14.81;84.16;100313.25;10503917;28;20036;-74
2022/10/26 16:30:48;;;;;;;120.32;77.18;;;;;;;14.67;86.74;100320.97;10502184;28;20067;-73
2022/10/26 16:35:57;;;;;;;11.65;10.57;;;;;;;14.36;87.94;100320.47;10503011;28;20041;-73
2022/10/26 16:41:02;;;;;;;14.10;9.80;;;;;;;14.25;88.68;100329.78;10504394;28;20497;-74
2022/10/26 16:46:13;;;;;;;8.15;7.28;;;;;;;14.22;89.59;100335.22;10485402;28;20098;-73
2022/10/26 16:56:30;;;;;;;11.35;9.93;;;;;;;14.14;89.68;100344.31;10264281;28;20492;-71
2022/10/26 17:01:32;;;;;;;72.10;39.25;;;;;;;14.01;90.73;100342.25;10297428;28;20089;-70
2022/10/26 17:06:34;;;;;;;8.68;7.93;;;;;;;13.95;91.34;100347.78;10293918;28;20030;-70
2022/10/26 17:11:36;;;;;;;7.88;7.25;;;;;;;13.78;92.28;100345.81;10293465;28;20047;-71
2022/10/26 17:16:37;;;;;;;8.48;7.78;;;;;;;13.72;92.85;100359.25;10294058;28;20078;-71
2022/10/26 17:21:39;;;;;;;55.13;33.25;;;;;;;13.68;93.82;100363.81;10295580;28;20061;-70
2022/10/26 17:26:41;;;;;;;22.90;16.85;;;;;;;14.03;90.87;100367.69;10292859;28;20073;-71
2022/10/26 17:31:42;;;;;;;11.07;10.10;;;;;;;13.77;91.57;100373.16;10291918;28;20130;-70
2022/10/26 17:36:44;;;;;;;11.88;7.78;;;;;;;13.62;92.57;100388.66;10293770;28;20050;-70
2022/10/26 17:41:46;;;;;;;8.77;7.97;;;;;;;13.80;91.00;100394.16;10295684;28;20119;-70
2022/10/26 17:46:47;;;;;;;11.00;8.25;;;;;;;13.57;92.52;100410.91;10293125;28;20052;-70
2022/10/26 17:51:49;;;;;;;11.02;9.35;;;;;;;13.69;92.51;100413.09;10279603;28;20138;-71
2022/10/26 17:56:51;;;;;;;12.50;9.65;;;;;;;13.71;91.03;100413.00;10334670;28;20126;-70
2022/10/26 18:01:52;;;;;;;9.52;8.68;;;;;;;13.64;91.78;100425.63;10334224;28;20054;-70
2022/10/26 18:06:54;;;;;;;11.35;9.85;;;;;;;13.48;92.90;100425.31;10339669;28;20038;-70
2022/10/26 18:11:56;;;;;;;11.55;10.45;;;;;;;13.58;92.16;100442.53;10338980;28;20551;-70
2022/10/26 18:16:58;;;;;;;10.32;9.52;;;;;;;13.44;92.94;100450.13;10339003;28;20046;-71
2022/10/26 18:21:59;;;;;;;10.68;9.75;;;;;;;13.20;95.15;100449.22;10340351;28;20062;-70
2022/10/26 18:27:01;;;;;;;11.35;10.35;;;;;;;13.18;95.35;100455.44;10341490;28;20069;-70
2022/10/26 18:32:02;;;;;;;9.45;8.57;;;;;;;13.22;95.67;100460.59;10340381;28;20057;-70
2022/10/26 18:37:04;;;;;;;9.55;8.80;;;;;;;13.15;95.45;100461.72;10338645;28;20519;-70
2022/10/26 18:42:05;;;;;;;9.38;8.57;;;;;;;12.93;96.86;100482.72;10338931;28;20515;-71
2022/10/26 18:47:07;;;;;;;9.45;8.65;;;;;;;12.82;97.43;100479.56;10340802;28;20085;-70
2022/10/26 18:52:09;;;;;;;10.45;9.45;;;;;;;12.76;97.66;100482.41;10338987;28;20046;-70
2022/10/26 18:57:10;;;;;;;11.07;10.07;;;;;;;12.82;98.93;100487.47;10339040;28;20159;-70
2022/10/26 19:02:13;;;;;;;10.60;9.55;;;;;;;12.84;99.63;100488.31;10340164;28;20050;-70
2022/10/26 19:07:15;;;;;;;9.98;8.98;;;;;;;12.62;100.00;100498.72;10340623;28;20121;-70
2022/10/26 19:12:17;;;;;;;11.05;10.00;;;;;;;12.43;100.00;100506.31;10337580;28;20109;-70
2022/10/26 19:17:19;;;;;;;11.40;10.30;;;;;;;12.40;100.00;100506.44;10335978;28;20085;-70
2022/10/26 19:22:20;;;;;;;10.10;9.15;;;;;;;12.37;100.00;100517.06;10320361;28;20049;-71
2022/10/26 19:27:22;;;;;;;10.48;9.48;;;;;;;12.27;100.00;100523.56;10337756;28;20035;-71
2022/10/26 19:32:27;;;;;;;10.82;9.85;;;;;;;12.25;100.00;100536.75;10338206;28;20046;-70
2022/10/26 19:37:29;;;;;;;10.70;9.80;;;;;;;12.09;100.00;100544.28;10337154;28;20121;-70
2022/10/26 19:42:31;;;;;;;12.05;10.20;;;;;;;12.16;100.00;100539.69;10336793;28;20134;-70
2022/10/26 19:47:32;;;;;;;11.65;10.57;;;;;;;12.14;100.00;100549.41;10336079;28;20211;-70
2022/10/26 19:52:35;;;;;;;11.93;10.90;;;;;;;12.03;100.00;100559.41;10337796;28;20407;-71
2022/10/26 19:57:37;;;;;;;12.60;11.50;;;;;;;11.99;100.00;100555.97;10318351;28;20093;-69
2022/10/26 20:02:38;;;;;;;11.75;10.63;;;;;;;11.91;100.00;100558.00;10335817;28;20455;-69
2022/10/26 20:07:40;;;;;;;12.38;11.32;;;;;;;11.77;100.00;100560.97;10333763;28;20096;-70
2022/10/26 20:12:41;;;;;;;12.10;10.80;;;;;;;11.61;100.00;100576.34;10335720;28;20676;-70
2022/10/26 20:17:43;;;;;;;12.20;11.07;;;;;;;11.49;100.00;100579.31;10334912;28;20050;-70
2022/10/26 20:22:44;;;;;;;14.00;12.70;;;;;;;11.32;100.00;100586.78;10334681;28;20055;-70
2022/10/26 20:27:47;;;;;;;18.30;16.90;;;;;;;11.18;100.00;100591.53;10333843;28;20043;-71
2022/10/26 20:32:49;;;;;;;18.08;16.48;;;;;;;11.27;100.00;100591.31;10334885;28;20038;-70
2022/10/26 20:37:51;;;;;;;16.52;15.02;;;;;;;11.14;100.00;100603.06;10336065;28;20165;-70
2022/10/26 20:42:54;;;;;;;14.80;13.50;;;;;;;11.04;100.00;100599.78;10334265;28;20054;-71
2022/10/26 20:47:57;;;;;;;17.08;13.25;;;;;;;10.89;100.00;100598.41;10333193;28;20046;-71
2022/10/26 20:53:05;;;;;;;14.07;12.68;;;;;;;11.03;100.00;100598.06;10334380;28;20038;-70
2022/10/26 20:58:20;;;;;;;14.23;12.95;;;;;;;11.08;100.00;100612.81;10334972;28;20035;-70
2022/10/26 21:03:22;;;;;;;12.35;11.25;;;;;;;10.80;100.00;100622.25;10334368;28;20042;-70
2022/10/26 21:08:23;;;;;;;14.27;12.88;;;;;;;10.84;100.00;100622.16;10333703;28;20038;-70
2022/10/26 21:13:25;;;;;;;13.90;12.60;;;;;;;10.89;100.00;100622.06;10333527;28;20078;-70
2022/10/26 21:18:26;;;;;;;13.57;12.52;;;;;;;10.65;100.00;100620.84;10334906;28;20452;-69
2022/10/26 21:23:38;;;;;;;14.25;12.68;;;;;;;10.46;100.00;100627.44;10332235;28;20081;-70
2022/10/26 21:28:44;;;;;;;14.18;12.98;;;;;;;10.47;100.00;100631.78;10333719;28;20097;-70
2022/10/26 21:33:46;;;;;;;13.82;12.73;;;;;;;10.55;100.00;100629.88;10334114;28;20083;-70
2022/10/26 21:38:48;;;;;;;15.07;13.50;;;;;;;10.72;100.00;100637.38;10334986;28;20046;-70
2022/10/26 21:43:50;;;;;;;13.32;12.02;;;;;;;10.43;100.00;100645.91;10341360;28;20471;-69
2022/10/26 21:49:12;;;;;;;12.82;11.68;;;;;;;10.25;100.00;100647.16;10340073;28;20471;-70
2022/10/26 21:54:14;;;;;;;14.93;13.52;;;;;;;10.52;100.00;100646.56;10322765;28;20050;-70
2022/10/26 21:59:15;;;;;;;16.13;14.15;;;;;;;10.50;100.00;100648.38;10339960;28;20051;-70
2022/10/26 22:04:17;;;;;;;16.40;14.27;;;;;;;10.37;100.00;100654.78;10340335;28;20085;-70
2022/10/26 22:09:18;;;;;;;16.20;14.07;;;;;;;10.18;100.00;100656.00;10339411;28;20042;-70
2022/10/26 22:14:20;;;;;;;15.65;14.32;;;;;;;10.06;100.00;100659.75;10339641;28;20548;-70
2022/10/26 22:19:21;;;;;;;15.30;13.90;;;;;;;10.04;100.00;100661.53;10339218;28;20046;-70
2022/10/26 22:24:23;;;;;;;15.35;13.88;;;;;;;10.10;100.00;100658.81;10340547;28;20069;-70
2022/10/26 22:29:25;;;;;;;16.42;14.98;;;;;;;9.99;100.00;100656.38;10338098;28;20050;-70
2022/10/26 22:34:26;;;;;;;17.67;14.98;;;;;;;10.29;100.00;100654.06;10337780;28;20408;-71
2022/10/26 22:39:28;;;;;;;17.35;15.68;;;;;;;10.19;100.00;100655.13;10339224;28;20081;-71
2022/10/26 22:44:29;;;;;;;18.60;16.20;;;;;;;10.13;100.00;100657.88;10338810;28;20046;-70
2022/10/26 22:49:31;;;;;;;17.33;15.60;;;;;;;9.93;100.00;100661.75;10320281;28;20042;-70
2022/10/26 22:54:32;;;;;;;19.80;15.32;;;;;;;9.86;100.00;100670.63;10338075;28;20496;-70
2022/10/26 22:59:34;;;;;;;19.15;16.55;;;;;;;9.90;100.00;100676.69;10409341;22;20040;-69
2022/10/26 23:04:36;;;;;;;16.98;15.50;;;;;;;9.93;100.00;100680.13;10544171;28;20036;-69
2022/10/26 23:09:37;;;;;;;18.92;16.67;;;;;;;10.09;100.00;100686.84;10543555;28;20044;-68
2022/10/26 23:14:39;;;;;;;20.25;17.45;;;;;;;9.90;100.00;100684.56;10543866;28;20090;-68
2022/10/26 23:19:40;;;;;;;20.52;18.55;;;;;;;9.91;100.00;100689.78;10543019;28;20040;-68